Time;durP1;ratioP1;P1;durP2;ratioP2;P2;SDS_P1;SDS_P2;PMS_P1;PMS_P2;Temp;Humidity;BMP_temperature;BMP_pressure;BME280_temperature;BME280_humidity;BME280_pressure;Samples;Min_cycle;Max_cycle;Signal;HPM_P1;HPM_P2
2022/11/11 00:01:04;;;;;;;7.18;6.50;;;9.10;99.90;;;;;;5105872;28;20200;-85
2022/11/11 00:03:43;;;;;;;7.82;7.13;;;9.10;99.90;;;;;;5117001;28;20272;-83
2022/11/11 00:06:40;;;;;;;12.00;7.50;;;9.10;99.90;;;;;;5110882;28;20208;-84
2022/11/11 00:09:26;;;;;;;6.65;6.05;;;9.10;99.90;;;;;;5117186;28;20203;-83
2022/11/11 00:12:33;;;;;;;9.23;6.57;;;9.10;99.90;;;;;;5116603;28;20325;-84
2022/11/11 00:15:21;;;;;;;7.93;7.20;;;9.10;99.90;;;;;;5116581;28;20219;-83
2022/11/11 00:31:29;;;;;;;8.10;7.00;;;9.00;99.90;;;;;;5085258;28;20204;-84
2022/11/11 00:34:24;;;;;;;7.75;6.95;;;9.00;99.90;;;;;;5095397;28;20224;-82
2022/11/11 00:37:35;;;;;;;7.25;6.55;;;9.00;99.90;;;;;;5095233;28;20236;-83
2022/11/11 00:44:12;;;;;;;8.70;7.28;;;9.00;99.90;;;;;;5093044;28;20224;-81
2022/11/11 00:57:00;;;;;;;6.55;5.97;;;8.80;99.90;;;;;;5105773;28;20212;-83
2022/11/11 00:59:43;;;;;;;9.00;6.43;;;8.70;99.90;;;;;;5116094;28;20203;-84
2022/11/11 01:02:37;;;;;;;11.43;7.10;;;8.60;99.90;;;;;;5115944;28;20215;-83
2022/11/11 01:05:35;;;;;;;10.95;6.88;;;8.60;99.90;;;;;;5115478;28;20219;-83
2022/11/11 01:08:26;;;;;;;8.32;7.53;;;8.50;99.90;;;;;;5115764;28;20200;-83
2022/11/11 01:11:08;;;;;;;8.32;7.15;;;8.50;99.90;;;;;;5115831;27;20214;-83
2022/11/11 01:14:01;;;;;;;9.40;7.80;;;8.40;99.90;;;;;;5095199;28;20262;-83
2022/11/11 01:17:21;;;;;;;8.02;7.22;;;8.50;99.90;;;;;;5094616;28;20306;-82
2022/11/11 01:20:55;;;;;;;7.05;6.40;;;8.40;99.90;;;;;;5095531;28;20200;-84
2022/11/11 01:23:44;;;;;;;8.98;7.03;;;8.40;99.90;;;;;;5095284;28;20224;-83
2022/11/11 01:29:44;;;;;;;8.32;7.53;;;8.30;99.90;;;;;;5078332;28;20196;-82
2022/11/11 01:32:38;;;;;;;7.57;6.82;;;8.20;99.90;;;;;;5103161;28;20215;-82
2022/11/11 01:35:35;;;;;;;9.30;8.00;;;8.20;99.90;;;;;;5095912;28;20222;-83
2022/11/11 01:38:46;;;;;;;15.43;7.53;;;8.20;99.90;;;;;;5114597;28;20227;-82
2022/11/11 01:41:37;;;;;;;8.50;7.60;;;8.20;99.90;;;;;;5115538;28;20207;-82
2022/11/11 01:45:15;;;;;;;8.40;7.53;;;8.20;99.90;;;;;;5113260;28;20307;-82
2022/11/11 01:51:27;;;;;;;10.77;7.00;;;8.20;99.90;;;;;;5114216;28;20207;-82
2022/11/11 01:54:08;;;;;;;7.32;6.70;;;8.20;99.90;;;;;;5113609;28;20310;-82
2022/11/11 01:57:08;;;;;;;8.07;6.95;;;8.20;99.90;;;;;;5114719;28;20299;-84
2022/11/11 01:59:51;;;;;;;8.45;7.22;;;8.10;99.90;;;;;;5114946;28;20203;-82
2022/11/11 02:02:24;;;;;;;8.57;7.10;;;8.20;99.90;;;;;;5115075;28;20207;-82
2022/11/11 02:08:32;;;;;;;8.10;7.40;;;8.10;99.90;;;;;;5114914;28;20390;-82
2022/11/11 02:14:45;;;;;;;8.45;7.65;;;8.00;99.90;;;;;;5114835;28;20253;-82
2022/11/11 02:20:23;;;;;;;9.05;8.07;;;7.90;99.90;;;;;;5110365;28;20219;-83
2022/11/11 02:23:20;;;;;;;8.80;7.90;;;7.90;99.90;;;;;;5112666;28;20234;-82
2022/11/11 02:26:12;;;;;;;7.68;7.07;;;7.90;99.90;;;;;;5114526;28;20204;-82
2022/11/11 02:31:55;;;;;;;8.02;7.35;;;7.80;99.90;;;;;;5114667;28;20219;-82
2022/11/11 02:34:48;;;;;;;7.57;6.88;;;7.70;99.90;;;;;;5113218;28;20405;-82
2022/11/11 02:37:43;;;;;;;10.50;7.88;;;7.70;99.90;;;;;;5077152;28;20307;-82
2022/11/11 02:44:16;;;;;;;7.45;6.65;;;7.70;99.90;;;;;;5114313;28;20231;-83
2022/11/11 02:47:21;;;;;;;11.60;7.82;;;7.60;99.90;;;;;;5103633;28;20196;-82
2022/11/11 02:50:00;;;;;;;10.20;8.13;;;7.60;99.90;;;;;;5114515;28;20261;-82
2022/11/11 02:53:07;;;;;;;8.55;7.47;;;7.60;99.90;;;;;;5106652;28;20239;-82
2022/11/11 02:58:53;;;;;;;6.97;6.32;;;7.50;99.90;;;;;;5114131;28;20202;-82
2022/11/11 03:05:27;;;;;;;8.60;6.97;;;7.50;99.90;;;;;;5114142;28;20210;-82
2022/11/11 03:11:55;;;;;;;8.77;7.57;;;7.60;99.90;;;;;;5104510;28;20206;-84
2022/11/11 03:15:16;;;;;;;8.82;7.03;;;7.50;99.90;;;;;;5091110;22;20259;-83
2022/11/11 03:18:06;;;;;;;8.77;7.90;;;7.50;99.90;;;;;;5093218;28;20223;-83
2022/11/11 03:21:19;;;;;;;8.23;7.38;;;7.50;99.90;;;;;;5093698;28;20291;-83
2022/11/11 03:24:21;;;;;;;8.13;7.25;;;7.50;99.90;;;;;;5071018;28;20312;-83
2022/11/11 03:30:48;;;;;;;8.55;7.65;;;7.50;99.90;;;;;;5053277;28;20201;-84
2022/11/11 03:47:00;;;;;;;10.23;9.23;;;7.70;99.90;;;;;;5022743;28;20274;-83
2022/11/11 03:50:30;;;;;;;12.05;9.85;;;7.70;99.90;;;;;;5030288;28;20301;-83
2022/11/11 03:53:31;;;;;;;12.73;10.27;;;7.80;99.90;;;;;;5052022;28;20225;-83
2022/11/11 04:16:19;;;;;;;11.38;10.15;;;8.00;99.90;;;;;;4974983;28;20288;-82
2022/11/11 04:31:02;;;;;;;10.80;9.80;;;7.80;99.90;;;;;;4880453;29;20191;-82
2022/11/11 04:34:36;;;;;;;11.65;10.55;;;7.80;99.90;;;;;;4988314;28;20226;-82
2022/11/11 04:41:02;;;;;;;10.23;8.90;;;7.90;99.90;;;;;;4998114;28;20230;-82
2022/11/11 04:50:41;;;;;;;11.32;10.13;;;7.80;99.90;;;;;;5022609;28;20193;-82
2022/11/11 05:12:05;;;;;;;8.23;7.43;;;7.60;99.90;;;;;;5075199;28;20185;-83
2022/11/11 05:21:31;;;;;;;11.13;8.45;;;7.50;99.90;;;;;;5074747;28;20207;-83
2022/11/11 05:27:34;;;;;;;9.50;8.60;;;7.40;99.90;;;;;;5075364;28;20197;-83
2022/11/11 05:30:40;;;;;;;;;;;;;;;;;;;;;
2022/11/11 05:33:28;;;;;;;8.32;7.50;;;7.40;99.90;;;;;;5078810;22;20223;-82
2022/11/11 05:43:01;;;;;;;11.50;9.48;;;7.40;99.90;;;;;;5084344;27;20206;-82
2022/11/11 05:57:25;;;;;;;11.45;8.77;;;7.30;99.90;;;;;;4912204;29;20214;-82
2022/11/11 06:00:36;;;;;;;;;;;;;;;;;;;;;
2022/11/11 06:04:05;;;;;;;8.88;7.97;;;7.20;99.90;;;;;;5063750;28;20208;-82
2022/11/11 06:06:53;;;;;;;9.07;8.02;;;7.30;99.90;;;;;;5092219;28;20291;-84
2022/11/11 06:09:23;;;;;;;11.27;9.27;;;7.20;99.90;;;;;;5072402;28;20197;-82
2022/11/11 06:11:52;;;;;;;11.15;8.75;;;7.20;99.90;;;;;;5071693;28;20207;-79
2022/11/11 06:14:20;;;;;;;11.13;9.23;;;7.20;99.90;;;;;;5071897;28;20221;-80
2022/11/11 06:16:48;;;;;;;9.55;8.65;;;7.20;99.90;;;;;;5073377;28;20287;-80
2022/11/11 06:19:18;;;;;;;10.50;9.30;;;7.20;99.90;;;;;;5071503;28;20228;-79
2022/11/11 06:21:59;;;;;;;11.27;9.48;;;7.20;99.90;;;;;;5098188;28;20202;-79
2022/11/11 06:24:28;;;;;;;10.32;8.85;;;7.20;99.90;;;;;;5114839;28;20225;-79
2022/11/11 06:26:55;;;;;;;9.93;8.68;;;7.20;99.90;;;;;;5114332;28;20314;-80
2022/11/11 06:29:23;;;;;;;10.57;9.48;;;7.20;99.90;;;;;;5114828;27;20202;-80
2022/11/11 06:31:52;;;;;;;9.63;8.73;;;7.20;99.90;;;;;;5113914;28;20205;-80
2022/11/11 06:34:22;;;;;;;10.05;9.05;;;7.20;99.90;;;;;;5114216;27;20306;-80
2022/11/11 06:36:50;;;;;;;11.20;10.05;;;7.20;99.90;;;;;;5114532;28;20200;-80
2022/11/11 06:39:18;;;;;;;14.07;11.07;;;7.20;99.90;;;;;;5126738;27;20241;-80
2022/11/11 06:41:46;;;;;;;11.70;10.50;;;7.30;99.90;;;;;;5134948;27;20210;-80
2022/11/11 06:44:15;;;;;;;11.77;10.57;;;7.30;99.90;;;;;;5129910;27;20234;-80
2022/11/11 06:46:52;;;;;;;18.08;10.93;;;7.30;99.90;;;;;;5113702;28;20204;-80
2022/11/11 06:49:22;;;;;;;12.43;10.88;;;7.40;99.90;;;;;;5114037;28;20214;-80
2022/11/11 06:51:50;;;;;;;16.90;12.02;;;7.40;99.90;;;;;;5119535;27;20197;-79
2022/11/11 06:54:18;;;;;;;11.60;10.48;;;7.50;99.90;;;;;;5134057;27;20308;-80
2022/11/11 06:56:51;;;;;;;14.70;12.07;;;7.50;99.90;;;;;;5133887;27;20195;-80
2022/11/11 06:59:19;;;;;;;15.20;12.63;;;7.50;99.90;;;;;;5134153;27;20222;-81
2022/11/11 07:01:47;;;;;;;12.70;10.93;;;7.50;99.90;;;;;;5124153;27;20222;-80
2022/11/11 07:04:25;;;;;;;14.38;12.88;;;7.60;99.90;;;;;;5114245;28;20319;-81
2022/11/11 07:06:54;;;;;;;15.10;13.30;;;7.60;99.90;;;;;;5114133;28;20283;-80
2022/11/11 07:09:26;;;;;;;12.43;11.23;;;7.60;99.90;;;;;;5115673;28;20184;-80
2022/11/11 07:11:59;;;;;;;14.38;12.43;;;7.60;99.90;;;;;;5114073;28;20204;-80
2022/11/11 07:14:27;;;;;;;13.43;12.10;;;7.70;99.90;;;;;;5113924;28;20269;-80
2022/11/11 07:16:56;;;;;;;15.00;12.95;;;7.70;99.90;;;;;;5113600;28;20205;-80
2022/11/11 07:19:31;;;;;;;12.10;10.98;;;7.80;99.90;;;;;;5113416;28;20211;-80
2022/11/11 07:22:00;;;;;;;14.40;12.93;;;7.80;99.90;;;;;;5113813;28;20200;-80
2022/11/11 07:24:29;;;;;;;14.85;13.40;;;7.90;99.90;;;;;;5093546;28;20220;-79
2022/11/11 07:34:56;;;;;;;32.80;10.90;;;8.00;99.90;;;;;;5111949;28;20221;-84
2022/11/11 07:38:47;;;;;;;15.25;11.63;;;8.10;99.90;;;;;;5112326;28;20203;-84
2022/11/11 07:41:19;;;;;;;11.77;10.25;;;8.20;99.90;;;;;;5063994;27;20229;-84
2022/11/11 07:47:19;;;;;;;12.02;9.65;;;8.30;99.90;;;;;;5124943;27;20294;-84
2022/11/11 07:53:59;;;;;;;13.63;9.65;;;8.60;99.90;;;;;;4977902;28;20227;-84
2022/11/11 08:03:49;;;;;;;12.43;10.82;;;9.00;99.90;;;;;;5015352;28;20217;-84
2022/11/11 08:06:23;;;;;;;27.52;9.73;;;9.20;99.90;;;;;;5063557;28;20201;-84
2022/11/11 08:08:52;;;;;;;12.30;9.13;;;9.30;99.90;;;;;;5128823;27;20198;-83
2022/11/11 08:20:49;;;;;;;9.57;8.63;;;9.70;99.90;;;;;;5159867;27;20243;-84
2022/11/11 08:39:24;;;;;;;;;;;;;;;;;;;;;
2022/11/11 08:42:42;;;;;;;9.43;8.23;;;10.20;99.90;;;;;;4978946;28;20343;-84
2022/11/11 08:49:03;;;;;;;6.38;5.78;;;10.50;99.90;;;;;;5130688;27;20194;-86
2022/11/11 08:52:11;;;;;;;5.50;5.00;;;10.50;99.90;;;;;;5136416;27;20214;-85
2022/11/11 08:54:42;;;;;;;8.50;6.20;;;10.60;99.90;;;;;;5136165;27;20239;-85
2022/11/11 08:57:48;;;;;;;7.20;6.43;;;10.70;99.90;;;;;;5136833;27;20194;-84
2022/11/11 09:00:22;;;;;;;8.90;5.55;;;10.70;99.90;;;;;;5141634;27;20230;-82
2022/11/11 09:02:51;;;;;;;11.55;6.75;;;10.80;99.90;;;;;;5136886;27;20262;-83
2022/11/11 09:05:22;;;;;;;6.25;5.75;;;10.90;99.90;;;;;;5154108;27;20218;-83
2022/11/11 09:07:50;;;;;;;8.90;6.82;;;11.00;99.90;;;;;;5156285;27;20202;-83
2022/11/11 09:10:19;;;;;;;7.32;6.00;;;11.10;99.90;;;;;;5157252;27;20213;-83
2022/11/11 09:12:47;;;;;;;10.65;6.20;;;11.20;99.90;;;;;;5156671;27;20258;-83
2022/11/11 09:15:27;;;;;;;9.50;5.53;;;11.30;99.90;;;;;;5156893;27;20213;-83
2022/11/11 09:18:14;;;;;;;6.15;5.53;;;11.30;99.90;;;;;;5157184;27;20262;-83
2022/11/11 09:20:43;;;;;;;7.07;5.78;;;11.50;99.90;;;;;;5156618;27;20218;-83
2022/11/11 09:23:14;;;;;;;9.00;8.07;;;11.50;99.90;;;;;;5154551;27;20301;-83
2022/11/11 09:25:42;;;;;;;10.75;7.30;;;11.60;99.90;;;;;;5157137;27;20190;-83
2022/11/11 09:28:15;;;;;;;13.43;8.82;;;11.70;99.90;;;;;;5156494;27;20198;-83
2022/11/11 09:33:56;;;;;;;32.33;9.60;;;11.90;99.90;;;;;;5169444;27;20241;-83
2022/11/11 09:37:04;;;;;;;12.73;9.55;;;12.00;99.90;;;;;;5162666;27;20205;-83
2022/11/11 09:42:48;;;;;;;10.20;9.15;;;12.10;99.90;;;;;;5152484;27;20202;-84
2022/11/11 09:45:46;;;;;;;9.60;8.55;;;12.20;99.90;;;;;;5151393;27;20207;-83
2022/11/11 09:52:38;;;;;;;9.77;8.77;;;12.60;99.90;;;;;;5156581;27;20173;-83
2022/11/11 09:56:03;;;;;;;12.73;8.35;;;12.70;99.90;;;;;;5156078;27;20210;-84
2022/11/11 10:06:06;;;;;;;9.13;8.02;;;13.30;99.90;;;;;;5020745;28;20190;-84
2022/11/11 10:23:33;;;;;;;12.13;10.00;;;13.20;99.90;;;;;;5059225;28;20230;-84
2022/11/11 10:30:19;;;;;;;12.30;9.65;;;13.40;99.90;;;;;;5010464;28;20203;-83
2022/11/11 10:36:57;;;;;;;13.35;9.60;;;13.30;99.90;;;;;;5060669;28;20212;-83
2022/11/11 10:56:00;;;;;;;16.40;10.05;;;14.20;99.90;;;;;;5070841;28;20239;-83
2022/11/11 11:02:50;;;;;;;12.23;8.65;;;14.90;99.90;;;;;;4995458;28;20203;-84
2022/11/11 11:05:31;;;;;;;10.30;8.45;;;15.20;99.90;;;;;;5033289;28;20215;-83
2022/11/11 11:08:53;;;;;;;10.35;9.25;;;15.30;99.90;;;;;;5033475;28;20195;-83
2022/11/11 11:12:26;;;;;;;19.55;10.20;;;15.60;99.90;;;;;;4972565;28;20212;-84
2022/11/11 11:29:13;;;;;;;10.85;8.85;;;17.00;99.90;;;;;;5009816;28;20220;-83
2022/11/11 11:35:55;;;;;;;10.73;9.27;;;17.10;99.90;;;;;;5071282;28;20230;-85
2022/11/11 11:38:46;;;;;;;8.80;7.38;;;17.20;99.90;;;;;;5073014;28;20213;-88
2022/11/11 11:41:15;;;;;;;7.60;6.95;;;17.10;99.90;;;;;;5079436;28;20224;-84
2022/11/11 11:43:44;;;;;;;8.73;7.82;;;17.10;99.90;;;;;;5081873;28;20224;-84
2022/11/11 11:46:22;;;;;;;10.23;7.30;;;17.40;99.90;;;;;;5092744;28;20209;-85
2022/11/11 11:49:17;;;;;;;9.65;7.70;;;17.50;99.90;;;;;;5072879;28;20193;-84
2022/11/11 11:52:02;;;;;;;8.50;6.50;;;17.60;99.90;;;;;;5072794;28;20201;-85
2022/11/11 11:54:42;;;;;;;11.15;6.43;;;17.50;99.90;;;;;;5072974;28;20228;-85
2022/11/11 11:57:24;;;;;;;8.45;6.50;;;17.60;99.90;;;;;;5092424;28;20212;-85
2022/11/11 11:59:58;;;;;;;9.18;7.00;;;17.70;99.90;;;;;;5092301;28;20212;-86
2022/11/11 12:05:28;;;;;;;9.38;7.20;;;17.90;99.90;;;;;;5049740;28;20289;-87
2022/11/11 12:08:21;;;;;;;6.97;6.07;;;18.10;99.90;;;;;;5052781;28;20213;-86
2022/11/11 12:11:02;;;;;;;8.95;7.75;;;18.10;99.90;;;;;;5053055;28;20202;-86
2022/11/11 12:13:53;;;;;;;8.02;6.30;;;18.20;99.90;;;;;;5052735;28;20218;-85
2022/11/11 12:16:46;;;;;;;9.65;7.20;;;18.40;99.90;;;;;;5052835;28;20325;-86
2022/11/11 12:19:46;;;;;;;19.65;9.38;;;18.40;99.90;;;;;;5052386;28;20206;-85
2022/11/11 12:22:52;;;;;;;14.32;8.98;;;18.20;99.90;;;;;;5052831;28;20320;-85
2022/11/11 12:26:00;;;;;;;10.90;7.72;;;18.00;99.90;;;;;;5009724;28;20219;-85
2022/11/11 12:29:08;;;;;;;13.30;9.13;;;18.00;99.90;;;;;;5052694;28;20301;-85
2022/11/11 12:32:05;;;;;;;16.42;8.93;;;17.90;99.90;;;;;;5052198;28;20202;-85
2022/11/11 12:35:02;;;;;;;11.90;8.65;;;18.00;99.90;;;;;;5056250;28;20229;-85
2022/11/11 12:38:03;;;;;;;13.40;8.88;;;18.30;99.90;;;;;;5044000;28;20209;-86
2022/11/11 12:40:53;;;;;;;11.02;9.13;;;18.60;99.90;;;;;;5055621;28;20245;-86
2022/11/11 12:43:56;;;;;;;13.00;8.88;;;19.00;99.90;;;;;;5061869;28;20281;-85
2022/11/11 12:46:51;;;;;;;9.60;8.70;;;19.20;99.90;;;;;;5058662;28;20216;-85
2022/11/11 12:49:48;;;;;;;10.82;8.95;;;19.30;99.90;;;;;;5071336;28;20194;-85
2022/11/11 12:53:01;;;;;;;11.23;9.55;;;19.40;99.90;;;;;;5071327;28;20207;-86
2022/11/11 12:55:52;;;;;;;11.45;8.82;;;19.40;99.90;;;;;;5074830;28;20201;-85
2022/11/11 12:58:56;;;;;;;10.93;9.50;;;19.40;99.90;;;;;;5035415;28;20203;-85
2022/11/11 13:01:41;;;;;;;11.48;9.95;;;19.30;99.90;;;;;;5035732;28;20233;-86
2022/11/11 13:08:25;;;;;;;10.05;8.95;;;19.10;99.90;;;;;;4988854;28;20210;-86
2022/11/11 13:11:17;;;;;;;11.30;8.57;;;18.90;99.90;;;;;;5036699;28;20222;-86
2022/11/11 13:14:26;;;;;;;11.63;9.25;;;18.70;99.90;;;;;;5037093;28;20296;-85
2022/11/11 13:17:09;;;;;;;10.25;8.20;;;18.50;99.90;;;;;;5015338;28;20236;-86
2022/11/11 13:19:43;;;;;;;11.20;9.32;;;18.40;99.90;;;;;;5036155;28;20289;-86
2022/11/11 13:22:35;;;;;;;15.80;8.88;;;18.10;99.90;;;;;;5023657;28;20282;-85
2022/11/11 13:25:22;;;;;;;12.30;8.80;;;17.80;99.90;;;;;;5034669;28;20215;-86
2022/11/11 13:28:06;;;;;;;8.65;7.07;;;17.60;99.90;;;;;;5036387;28;20265;-86
2022/11/11 13:31:14;;;;;;;17.67;6.82;;;17.50;99.90;;;;;;5055734;28;20594;-86
2022/11/11 13:33:52;;;;;;;12.50;7.55;;;17.30;99.90;;;;;;5055573;28;20305;-85
2022/11/11 13:36:27;;;;;;;7.80;6.50;;;17.20;99.90;;;;;;5055458;28;20284;-85
2022/11/11 13:39:02;;;;;;;6.97;6.38;;;17.00;99.90;;;;;;5055392;28;20201;-86
2022/11/11 13:41:39;;;;;;;7.40;6.47;;;16.80;99.90;;;;;;5055730;28;20210;-86
2022/11/11 13:44:13;;;;;;;7.20;6.50;;;16.60;99.90;;;;;;5055506;28;20279;-86
2022/11/11 13:49:58;;;;;;;8.13;5.68;;;16.40;99.90;;;;;;5033524;28;20233;-88
2022/11/11 13:52:32;;;;;;;18.40;6.82;;;16.20;99.90;;;;;;5056103;28;20213;-85
2022/11/11 13:55:03;;;;;;;6.20;4.95;;;16.20;99.90;;;;;;5054482;28;20237;-85
2022/11/11 13:57:34;;;;;;;5.72;5.13;;;16.20;99.90;;;;;;5058791;28;20267;-85
2022/11/11 14:00:07;;;;;;;5.90;5.30;;;16.10;99.90;;;;;;5058633;28;20202;-89
2022/11/11 14:02:36;;;;;;;7.82;6.35;;;16.00;99.90;;;;;;5054508;28;20204;-88
2022/11/11 14:05:25;;;;;;;7.38;5.72;;;15.90;99.90;;;;;;5054036;28;20210;-87
2022/11/11 14:07:56;;;;;;;7.35;5.82;;;15.90;99.90;;;;;;5054323;28;20198;-89
2022/11/11 14:10:53;;;;;;;5.70;5.20;;;15.70;99.90;;;;;;5053999;28;20210;-91
2022/11/11 14:13:41;;;;;;;7.07;5.32;;;15.50;99.90;;;;;;5049442;28;20237;-81
2022/11/11 14:16:33;;;;;;;6.05;5.05;;;15.30;99.90;;;;;;5054564;28;20208;-82
2022/11/11 14:19:28;;;;;;;5.82;5.15;;;15.20;99.90;;;;;;5054172;28;20301;-80
2022/11/11 14:21:58;;;;;;;5.32;4.82;;;15.10;99.90;;;;;;5053966;28;20209;-80
2022/11/11 14:24:34;;;;;;;5.88;4.72;;;15.00;99.90;;;;;;5054483;28;20287;-80
2022/11/11 14:27:04;;;;;;;10.43;5.63;;;14.90;99.90;;;;;;5054000;28;20296;-80
2022/11/11 14:29:37;;;;;;;6.00;5.40;;;14.80;99.90;;;;;;5054286;28;20212;-80
2022/11/11 14:32:33;;;;;;;6.07;4.40;;;14.70;99.90;;;;;;5053261;28;20249;-81
2022/11/11 14:35:21;;;;;;;5.60;4.57;;;14.60;99.90;;;;;;5053623;28;20221;-81
2022/11/11 14:38:12;;;;;;;7.00;5.00;;;14.50;99.90;;;;;;5053460;28;20212;-80
2022/11/11 14:40:41;;;;;;;5.32;4.45;;;14.50;99.90;;;;;;5053709;28;20262;-80
2022/11/11 14:43:35;;;;;;;40.15;5.35;;;14.30;99.90;;;;;;5053380;28;20214;-81
2022/11/11 14:46:05;;;;;;;8.00;5.13;;;14.20;99.90;;;;;;5053833;28;20206;-81
2022/11/11 14:49:00;;;;;;;6.75;4.63;;;14.10;99.90;;;;;;5072607;28;20258;-81
2022/11/11 14:51:39;;;;;;;7.18;5.47;;;14.10;99.90;;;;;;5072895;28;20224;-80
2022/11/11 14:54:20;;;;;;;5.80;5.13;;;14.00;99.90;;;;;;5072339;28;20225;-80
2022/11/11 14:56:57;;;;;;;5.50;4.57;;;13.90;99.90;;;;;;5066953;28;20201;-80
2022/11/11 14:59:32;;;;;;;7.38;4.50;;;13.80;99.90;;;;;;5059876;28;20194;-80
2022/11/11 15:02:04;;;;;;;4.38;4.07;;;13.70;99.90;;;;;;5069876;28;20288;-82
2022/11/11 15:04:48;;;;;;;6.88;5.10;;;13.70;99.90;;;;;;5070496;28;20237;-82
2022/11/11 15:07:26;;;;;;;7.03;5.40;;;13.60;99.90;;;;;;5052908;28;20207;-82
2022/11/11 15:10:36;;;;;;;5.65;5.03;;;13.60;99.90;;;;;;5053260;28;20246;-83
2022/11/11 15:17:54;;;;;;;7.63;5.10;;;13.50;99.90;;;;;;4938249;28;20209;-82
2022/11/11 15:21:05;;;;;;;5.18;4.60;;;13.30;99.90;;;;;;4991980;28;20207;-82
2022/11/11 15:24:05;;;;;;;6.78;5.22;;;13.30;99.90;;;;;;4952515;28;20236;-85
2022/11/11 15:27:15;;;;;;;5.13;4.53;;;13.20;99.90;;;;;;4961274;28;20204;-82
2022/11/11 15:30:27;;;;;;;8.48;5.47;;;13.10;99.90;;;;;;4999644;28;20203;-82
2022/11/11 15:33:14;;;;;;;6.43;5.20;;;13.00;99.90;;;;;;4989089;28;20310;-84
2022/11/11 15:36:04;;;;;;;5.22;4.47;;;12.80;99.90;;;;;;5064652;28;20205;-82
2022/11/11 15:38:44;;;;;;;4.80;4.40;;;12.80;99.90;;;;;;5052669;28;20285;-82
2022/11/11 15:41:51;;;;;;;5.90;3.50;;;12.80;99.90;;;;;;5064214;28;20197;-83
2022/11/11 15:48:24;;;;;;;4.25;3.75;;;12.60;99.90;;;;;;5105133;28;20269;-82
2022/11/11 15:51:36;;;;;;;4.15;3.75;;;12.50;99.90;;;;;;5117606;28;20205;-82
2022/11/11 15:54:29;;;;;;;4.55;4.15;;;12.50;99.90;;;;;;5100118;28;20236;-82
2022/11/11 15:57:32;;;;;;;6.80;5.97;;;12.40;99.90;;;;;;5093129;28;20223;-82
2022/11/11 16:00:29;;;;;;;6.15;5.57;;;12.30;99.90;;;;;;5093241;28;20208;-82
2022/11/11 16:03:14;;;;;;;7.55;5.13;;;12.20;99.90;;;;;;5092987;28;20228;-83
2022/11/11 16:06:00;;;;;;;4.47;3.78;;;12.10;99.90;;;;;;5106838;28;20208;-82
2022/11/11 16:08:56;;;;;;;9.23;5.18;;;12.10;99.90;;;;;;5117423;28;20196;-82
2022/11/11 16:11:24;;;;;;;5.78;4.88;;;12.00;99.90;;;;;;5104641;28;20208;-82
2022/11/11 16:13:59;;;;;;;6.00;5.40;;;11.90;99.90;;;;;;5103266;28;20212;-82
2022/11/11 16:16:39;;;;;;;7.60;4.78;;;11.90;99.90;;;;;;5113343;28;20223;-82
2022/11/11 16:19:15;;;;;;;7.03;5.85;;;11.90;99.90;;;;;;5117155;28;20203;-83
2022/11/11 16:21:48;;;;;;;7.30;5.85;;;11.80;99.90;;;;;;5114465;27;20205;-82
2022/11/11 16:24:25;;;;;;;17.25;8.73;;;11.80;99.90;;;;;;5115804;27;20226;-82
2022/11/11 16:26:53;;;;;;;9.30;7.75;;;11.80;99.90;;;;;;5103707;27;20218;-82
2022/11/11 16:29:23;;;;;;;10.07;7.50;;;11.80;99.90;;;;;;5126088;27;20215;-82
2022/11/11 16:32:02;;;;;;;8.52;6.65;;;11.70;99.90;;;;;;5127821;27;20194;-82
2022/11/11 16:34:36;;;;;;;6.60;5.93;;;11.70;99.90;;;;;;5137121;27;20231;-82
2022/11/11 16:37:15;;;;;;;7.38;6.28;;;11.70;99.90;;;;;;5117873;27;20222;-82
2022/11/11 16:39:46;;;;;;;15.93;12.35;;;11.60;99.90;;;;;;5116925;28;20206;-82
2022/11/11 16:42:21;;;;;;;20.92;15.20;;;11.60;99.90;;;;;;5116866;28;20203;-88
2022/11/11 16:45:04;;;;;;;13.90;9.23;;;11.60;99.90;;;;;;5132356;27;20234;-82
2022/11/11 16:47:49;;;;;;;13.40;9.13;;;11.50;99.90;;;;;;5137014;27;20199;-82
2022/11/11 16:50:53;;;;;;;9.98;7.30;;;11.50;99.90;;;;;;5128633;27;20199;-82
2022/11/11 16:53:32;;;;;;;8.30;7.55;;;11.40;99.90;;;;;;5136911;27;20234;-82
2022/11/11 16:56:20;;;;;;;10.60;6.53;;;11.30;99.90;;;;;;5137052;27;20205;-82
2022/11/11 16:59:01;;;;;;;11.48;5.53;;;11.20;99.90;;;;;;5136915;27;20203;-81
2022/11/11 17:01:31;;;;;;;4.90;4.03;;;11.20;99.90;;;;;;5133421;27;20218;-78
2022/11/11 17:04:02;;;;;;;6.38;4.47;;;11.20;99.90;;;;;;5135328;27;20215;-80
2022/11/11 17:06:54;;;;;;;9.32;6.20;;;11.20;99.90;;;;;;5137448;27;20198;-80
2022/11/11 17:09:34;;;;;;;5.63;4.88;;;11.20;99.90;;;;;;5137150;27;20251;-79
2022/11/11 17:12:03;;;;;;;5.63;4.00;;;11.20;99.90;;;;;;5137108;27;20209;-79
2022/11/11 17:14:35;;;;;;;6.07;3.95;;;11.20;99.90;;;;;;5137388;27;20247;-81
2022/11/11 17:17:06;;;;;;;3.75;3.45;;;11.10;99.90;;;;;;5136996;27;20199;-79
2022/11/11 17:19:48;;;;;;;4.38;3.72;;;11.10;99.90;;;;;;5137403;27;20290;-79
2022/11/11 17:22:17;;;;;;;4.50;3.80;;;11.10;99.90;;;;;;5137057;27;20289;-80
2022/11/11 17:24:47;;;;;;;2.58;2.38;;;11.10;99.90;;;;;;5136395;27;20223;-81
2022/11/11 17:27:16;;;;;;;3.22;2.92;;;11.10;99.90;;;;;;5107045;28;20202;-80
2022/11/11 17:29:47;;;;;;;5.25;3.10;;;11.10;99.90;;;;;;5116050;28;20214;-81
2022/11/11 17:32:17;;;;;;;2.40;2.20;;;11.00;99.90;;;;;;5116502;28;20192;-80
2022/11/11 17:34:52;;;;;;;3.35;2.95;;;11.00;99.90;;;;;;5124034;27;20223;-80
2022/11/11 17:37:20;;;;;;;2.97;2.70;;;11.00;99.90;;;;;;5133407;27;20210;-80
2022/11/11 17:39:57;;;;;;;2.85;2.53;;;11.00;99.90;;;;;;5135010;27;20199;-80
2022/11/11 17:42:28;;;;;;;2.40;2.20;;;11.00;99.90;;;;;;5125158;27;20204;-80
2022/11/11 17:44:58;;;;;;;9.55;3.85;;;11.10;99.90;;;;;;5137698;27;20229;-79
2022/11/11 17:47:28;;;;;;;7.97;4.07;;;11.10;99.90;;;;;;5137666;27;20199;-79
2022/11/11 17:49:59;;;;;;;4.60;4.15;;;11.10;99.90;;;;;;5137614;27;20230;-79
2022/11/11 17:52:29;;;;;;;4.28;3.42;;;11.10;99.90;;;;;;5136694;27;20211;-79
2022/11/11 17:54:58;;;;;;;6.70;5.43;;;11.00;99.90;;;;;;5137756;27;20223;-79
2022/11/11 17:57:28;;;;;;;8.48;6.60;;;11.00;99.90;;;;;;5138069;27;20203;-79
2022/11/11 17:59:57;;;;;;;10.57;7.53;;;11.00;99.90;;;;;;5138001;27;20209;-79
2022/11/11 18:02:27;;;;;;;16.88;7.38;;;11.00;99.90;;;;;;5137372;27;20248;-79
2022/11/11 18:04:58;;;;;;;11.05;7.47;;;11.00;99.90;;;;;;5136537;27;20233;-80
2022/11/11 18:07:38;;;;;;;7.38;6.32;;;11.00;99.90;;;;;;5136482;27;20263;-78
2022/11/11 18:10:14;;;;;;;6.05;5.38;;;10.90;99.90;;;;;;5117315;27;20202;-78
2022/11/11 18:12:43;;;;;;;6.00;5.00;;;10.90;99.90;;;;;;5114874;28;20203;-78
2022/11/11 18:15:13;;;;;;;4.18;3.42;;;10.80;99.90;;;;;;5115654;28;20207;-79
2022/11/11 18:17:53;;;;;;;3.92;3.58;;;10.80;99.90;;;;;;5115165;28;20203;-79
2022/11/11 18:20:32;;;;;;;3.75;3.30;;;10.80;99.90;;;;;;5115572;28;20214;-79
2022/11/11 18:23:00;;;;;;;4.13;3.53;;;10.70;99.90;;;;;;5115130;28;20216;-79
2022/11/11 18:25:40;;;;;;;4.32;3.10;;;10.70;99.90;;;;;;5115751;28;20206;-79
2022/11/11 18:28:12;;;;;;;4.65;3.50;;;10.70;99.90;;;;;;5128867;27;20207;-79
2022/11/11 18:30:43;;;;;;;3.55;3.25;;;10.70;99.90;;;;;;5131490;27;20289;-79
2022/11/11 18:33:13;;;;;;;5.03;3.42;;;10.70;99.90;;;;;;5126424;27;20253;-80
2022/11/11 18:35:52;;;;;;;3.80;3.50;;;10.70;99.90;;;;;;5132168;27;20239;-85
2022/11/11 18:38:20;;;;;;;3.40;3.10;;;10.70;99.90;;;;;;5155560;27;20208;-82
2022/11/11 18:40:49;;;;;;;3.47;3.17;;;10.60;99.90;;;;;;5147720;27;20206;-83
2022/11/11 18:43:17;;;;;;;4.53;3.88;;;10.60;99.90;;;;;;5126086;27;20235;-81
2022/11/11 18:45:45;;;;;;;6.72;4.15;;;10.50;99.90;;;;;;5135088;27;20203;-82
2022/11/11 18:48:15;;;;;;;3.35;3.05;;;10.60;99.90;;;;;;5136784;27;20224;-81
2022/11/11 18:50:52;;;;;;;4.80;3.47;;;10.60;99.90;;;;;;5113969;28;20208;-82
2022/11/11 18:53:21;;;;;;;5.70;3.47;;;10.60;99.90;;;;;;5124847;27;20277;-81
2022/11/11 18:55:50;;;;;;;3.42;3.13;;;10.60;99.90;;;;;;5120087;27;20220;-82
2022/11/11 18:58:21;;;;;;;3.90;3.53;;;10.60;99.90;;;;;;5134433;27;20234;-83
2022/11/11 19:00:51;;;;;;;7.25;3.30;;;10.50;99.90;;;;;;5127783;27;20225;-83
2022/11/11 19:03:20;;;;;;;2.83;2.63;;;10.50;99.90;;;;;;5117229;27;20219;-83
2022/11/11 19:05:52;;;;;;;3.35;3.15;;;10.60;99.90;;;;;;5121856;27;20206;-82
2022/11/11 19:08:21;;;;;;;3.97;3.50;;;10.50;99.90;;;;;;5127420;27;20195;-82
2022/11/11 19:10:58;;;;;;;2.28;2.17;;;10.50;99.90;;;;;;5125809;27;20207;-82
2022/11/11 19:13:30;;;;;;;6.25;3.75;;;10.50;99.90;;;;;;5139673;27;20217;-82
2022/11/11 19:16:07;;;;;;;3.42;3.13;;;10.50;99.90;;;;;;5133979;27;20191;-82
2022/11/11 19:18:36;;;;;;;4.60;4.18;;;10.50;99.90;;;;;;5117459;27;20192;-82
2022/11/11 19:21:11;;;;;;;5.88;3.72;;;10.50;99.90;;;;;;5130814;28;20187;-81
2022/11/11 19:23:39;;;;;;;4.68;4.13;;;10.50;99.90;;;;;;5127707;27;20209;-82
2022/11/11 19:26:12;;;;;;;6.90;5.43;;;10.50;99.90;;;;;;5113069;28;20205;-82
2022/11/11 19:28:44;;;;;;;4.82;4.38;;;10.50;99.90;;;;;;5133273;27;20204;-83